sensor_id;sensor_type;location;lat;lon;timestamp;P1;durP1;ratioP1;P2;durP2;ratioP2
17658;SDS011;8948;51.534;8.262;2023-06-19T00:04:45;9.65;;;5.80;;
17658;SDS011;8948;51.534;8.262;2023-06-19T00:09:45;8.00;;;5.57;;
17658;SDS011;8948;51.534;8.262;2023-06-19T00:14:46;8.63;;;5.60;;
17658;SDS011;8948;51.534;8.262;2023-06-19T00:19:47;7.78;;;5.97;;
17658;SDS011;8948;51.534;8.262;2023-06-19T00:24:48;10.73;;;5.97;;
17658;SDS011;8948;51.534;8.262;2023-06-19T00:29:50;10.13;;;5.20;;
17658;SDS011;8948;51.534;8.262;2023-06-19T00:34:51;9.00;;;6.40;;
17658;SDS011;8948;51.534;8.262;2023-06-19T00:39:51;7.28;;;5.82;;
17658;SDS011;8948;51.534;8.262;2023-06-19T00:44:52;8.43;;;6.30;;
17658;SDS011;8948;51.534;8.262;2023-06-19T00:49:52;10.35;;;5.60;;
17658;SDS011;8948;51.534;8.262;2023-06-19T00:54:53;9.85;;;6.28;;
17658;SDS011;8948;51.534;8.262;2023-06-19T00:59:54;8.55;;;6.38;;
17658;SDS011;8948;51.534;8.262;2023-06-19T01:04:56;8.50;;;5.68;;
17658;SDS011;8948;51.534;8.262;2023-06-19T01:09:58;11.50;;;6.40;;
17658;SDS011;8948;51.534;8.262;2023-06-19T01:15:05;7.80;;;5.78;;
17658;SDS011;8948;51.534;8.262;2023-06-19T01:20:09;8.52;;;6.30;;
17658;SDS011;8948;51.534;8.262;2023-06-19T01:25:11;7.00;;;5.93;;
17658;SDS011;8948;51.534;8.262;2023-06-19T01:30:13;8.25;;;5.25;;
17658;SDS011;8948;51.534;8.262;2023-06-19T01:35:15;8.23;;;6.25;;
17658;SDS011;8948;51.534;8.262;2023-06-19T01:40:19;9.55;;;5.72;;
17658;SDS011;8948;51.534;8.262;2023-06-19T01:45:24;7.15;;;6.18;;
17658;SDS011;8948;51.534;8.262;2023-06-19T01:50:25;7.18;;;5.93;;
17658;SDS011;8948;51.534;8.262;2023-06-19T01:55:25;14.23;;;6.32;;
17658;SDS011;8948;51.534;8.262;2023-06-19T02:00:26;9.63;;;6.97;;
17658;SDS011;8948;51.534;8.262;2023-06-19T02:05:27;7.22;;;6.15;;
17658;SDS011;8948;51.534;8.262;2023-06-19T02:10:28;10.82;;;6.60;;
17658;SDS011;8948;51.534;8.262;2023-06-19T02:15:28;10.25;;;6.85;;
17658;SDS011;8948;51.534;8.262;2023-06-19T02:20:29;8.52;;;6.28;;
17658;SDS011;8948;51.534;8.262;2023-06-19T02:25:29;9.45;;;5.82;;
17658;SDS011;8948;51.534;8.262;2023-06-19T02:30:30;8.75;;;6.25;;
17658;SDS011;8948;51.534;8.262;2023-06-19T02:35:30;6.90;;;6.13;;
17658;SDS011;8948;51.534;8.262;2023-06-19T02:40:31;7.78;;;5.80;;
17658;SDS011;8948;51.534;8.262;2023-06-19T02:45:32;8.20;;;6.20;;
17658;SDS011;8948;51.534;8.262;2023-06-19T02:50:32;9.93;;;5.82;;
17658;SDS011;8948;51.534;8.262;2023-06-19T02:55:33;10.23;;;6.20;;
17658;SDS011;8948;51.534;8.262;2023-06-19T03:00:33;6.85;;;4.93;;
17658;SDS011;8948;51.534;8.262;2023-06-19T03:05:34;9.60;;;5.63;;
17658;SDS011;8948;51.534;8.262;2023-06-19T03:10:34;7.50;;;5.50;;
17658;SDS011;8948;51.534;8.262;2023-06-19T03:15:35;9.10;;;5.68;;
17658;SDS011;8948;51.534;8.262;2023-06-19T03:20:36;7.78;;;5.50;;
17658;SDS011;8948;51.534;8.262;2023-06-19T03:25:36;7.93;;;5.32;;
17658;SDS011;8948;51.534;8.262;2023-06-19T03:30:37;8.65;;;5.30;;
17658;SDS011;8948;51.534;8.262;2023-06-19T03:35:37;9.93;;;5.93;;
17658;SDS011;8948;51.534;8.262;2023-06-19T03:40:38;9.80;;;6.05;;
17658;SDS011;8948;51.534;8.262;2023-06-19T03:45:38;8.18;;;5.32;;
17658;SDS011;8948;51.534;8.262;2023-06-19T03:50:39;7.28;;;5.63;;
17658;SDS011;8948;51.534;8.262;2023-06-19T03:55:40;10.23;;;5.32;;
17658;SDS011;8948;51.534;8.262;2023-06-19T04:00:40;9.35;;;6.13;;
17658;SDS011;8948;51.534;8.262;2023-06-19T04:05:41;11.18;;;6.20;;
17658;SDS011;8948;51.534;8.262;2023-06-19T04:10:42;6.65;;;5.28;;
17658;SDS011;8948;51.534;8.262;2023-06-19T04:15:43;9.10;;;5.00;;
17658;SDS011;8948;51.534;8.262;2023-06-19T04:20:44;8.25;;;5.47;;
17658;SDS011;8948;51.534;8.262;2023-06-19T04:25:44;11.98;;;5.97;;
17658;SDS011;8948;51.534;8.262;2023-06-19T04:30:45;11.00;;;6.10;;
17658;SDS011;8948;51.534;8.262;2023-06-19T04:35:46;10.52;;;5.85;;
17658;SDS011;8948;51.534;8.262;2023-06-19T04:40:48;7.90;;;5.20;;
17658;SDS011;8948;51.534;8.262;2023-06-19T04:45:49;6.93;;;5.47;;
17658;SDS011;8948;51.534;8.262;2023-06-19T04:50:51;6.80;;;5.30;;
17658;SDS011;8948;51.534;8.262;2023-06-19T04:55:52;6.97;;;5.38;;
17658;SDS011;8948;51.534;8.262;2023-06-19T05:00:54;7.38;;;5.00;;
17658;SDS011;8948;51.534;8.262;2023-06-19T05:05:55;8.60;;;5.38;;
17658;SDS011;8948;51.534;8.262;2023-06-19T05:10:55;8.45;;;5.20;;
17658;SDS011;8948;51.534;8.262;2023-06-19T05:15:57;5.50;;;4.50;;
17658;SDS011;8948;51.534;8.262;2023-06-19T05:20:58;7.90;;;5.00;;
17658;SDS011;8948;51.534;8.262;2023-06-19T05:25:58;5.80;;;5.10;;
17658;SDS011;8948;51.534;8.262;2023-06-19T05:30:59;12.27;;;5.20;;
17658;SDS011;8948;51.534;8.262;2023-06-19T05:36:00;6.85;;;5.13;;
17658;SDS011;8948;51.534;8.262;2023-06-19T05:41:01;12.52;;;5.13;;
17658;SDS011;8948;51.534;8.262;2023-06-19T05:46:02;7.68;;;4.70;;
17658;SDS011;8948;51.534;8.262;2023-06-19T05:51:04;8.27;;;4.78;;
17658;SDS011;8948;51.534;8.262;2023-06-19T05:56:04;7.97;;;4.10;;
17658;SDS011;8948;51.534;8.262;2023-06-19T06:01:05;5.70;;;4.35;;
17658;SDS011;8948;51.534;8.262;2023-06-19T06:06:06;6.63;;;4.30;;
17658;SDS011;8948;51.534;8.262;2023-06-19T06:11:07;5.82;;;4.30;;
17658;SDS011;8948;51.534;8.262;2023-06-19T06:16:08;8.27;;;4.75;;
17658;SDS011;8948;51.534;8.262;2023-06-19T06:21:08;6.40;;;4.45;;
17658;SDS011;8948;51.534;8.262;2023-06-19T06:26:09;7.13;;;5.30;;
17658;SDS011;8948;51.534;8.262;2023-06-19T06:31:09;8.07;;;5.20;;
17658;SDS011;8948;51.534;8.262;2023-06-19T06:36:10;6.97;;;5.05;;
17658;SDS011;8948;51.534;8.262;2023-06-19T06:41:11;6.72;;;5.05;;
17658;SDS011;8948;51.534;8.262;2023-06-19T06:46:11;10.50;;;5.43;;
17658;SDS011;8948;51.534;8.262;2023-06-19T06:51:12;7.70;;;6.13;;
17658;SDS011;8948;51.534;8.262;2023-06-19T06:56:12;7.82;;;4.65;;
17658;SDS011;8948;51.534;8.262;2023-06-19T07:01:13;6.93;;;5.03;;
17658;SDS011;8948;51.534;8.262;2023-06-19T07:06:13;7.03;;;4.38;;
17658;SDS011;8948;51.534;8.262;2023-06-19T07:11:14;7.90;;;4.95;;
17658;SDS011;8948;51.534;8.262;2023-06-19T07:16:14;5.13;;;4.43;;
17658;SDS011;8948;51.534;8.262;2023-06-19T07:21:15;8.18;;;4.15;;
17658;SDS011;8948;51.534;8.262;2023-06-19T07:26:16;6.75;;;4.32;;
17658;SDS011;8948;51.534;8.262;2023-06-19T07:31:16;7.40;;;4.20;;
17658;SDS011;8948;51.534;8.262;2023-06-19T07:36:17;11.57;;;3.95;;
17658;SDS011;8948;51.534;8.262;2023-06-19T07:41:17;5.68;;;4.20;;
17658;SDS011;8948;51.534;8.262;2023-06-19T07:46:18;4.53;;;3.60;;
17658;SDS011;8948;51.534;8.262;2023-06-19T07:51:18;5.32;;;3.50;;
17658;SDS011;8948;51.534;8.262;2023-06-19T07:56:19;3.85;;;3.17;;
17658;SDS011;8948;51.534;8.262;2023-06-19T08:01:20;7.25;;;3.45;;
17658;SDS011;8948;51.534;8.262;2023-06-19T08:06:20;6.40;;;3.42;;
17658;SDS011;8948;51.534;8.262;2023-06-19T08:11:21;7.00;;;2.75;;
17658;SDS011;8948;51.534;8.262;2023-06-19T08:16:21;35.88;;;4.28;;
17658;SDS011;8948;51.534;8.262;2023-06-19T08:21:22;5.53;;;2.13;;
17658;SDS011;8948;51.534;8.262;2023-06-19T08:26:22;3.60;;;2.30;;
17658;SDS011;8948;51.534;8.262;2023-06-19T08:31:23;2.95;;;2.40;;
17658;SDS011;8948;51.534;8.262;2023-06-19T08:36:27;8.45;;;2.40;;
17658;SDS011;8948;51.534;8.262;2023-06-19T08:41:27;2.72;;;2.10;;
17658;SDS011;8948;51.534;8.262;2023-06-19T08:46:28;6.43;;;2.33;;
17658;SDS011;8948;51.534;8.262;2023-06-19T08:51:29;4.00;;;2.05;;
17658;SDS011;8948;51.534;8.262;2023-06-19T08:56:33;3.63;;;2.30;;
17658;SDS011;8948;51.534;8.262;2023-06-19T09:01:35;2.30;;;1.83;;
17658;SDS011;8948;51.534;8.262;2023-06-19T09:06:36;6.45;;;2.40;;
17658;SDS011;8948;51.534;8.262;2023-06-19T09:12:06;5.82;;;2.60;;
17658;SDS011;8948;51.534;8.262;2023-06-19T09:17:11;5.18;;;2.30;;
17658;SDS011;8948;51.534;8.262;2023-06-19T09:22:13;2.20;;;2.00;;
17658;SDS011;8948;51.534;8.262;2023-06-19T09:27:16;10.23;;;2.33;;
17658;SDS011;8948;51.534;8.262;2023-06-19T09:32:22;3.38;;;2.22;;
17658;SDS011;8948;51.534;8.262;2023-06-19T09:37:25;3.63;;;2.63;;
17658;SDS011;8948;51.534;8.262;2023-06-19T09:42:30;4.38;;;2.50;;
17658;SDS011;8948;51.534;8.262;2023-06-19T09:47:35;6.53;;;2.50;;
17658;SDS011;8948;51.534;8.262;2023-06-19T09:52:37;3.65;;;2.15;;
17658;SDS011;8948;51.534;8.262;2023-06-19T09:57:40;3.88;;;2.22;;
17658;SDS011;8948;51.534;8.262;2023-06-19T10:02:42;2.58;;;1.80;;
17658;SDS011;8948;51.534;8.262;2023-06-19T10:07:44;4.85;;;2.05;;
17658;SDS011;8948;51.534;8.262;2023-06-19T10:12:46;2.45;;;1.95;;
17658;SDS011;8948;51.534;8.262;2023-06-19T10:17:52;5.97;;;1.70;;
17658;SDS011;8948;51.534;8.262;2023-06-19T10:23:15;4.63;;;2.22;;
17658;SDS011;8948;51.534;8.262;2023-06-19T10:28:25;7.75;;;1.85;;
17658;SDS011;8948;51.534;8.262;2023-06-19T10:33:28;3.05;;;1.90;;
17658;SDS011;8948;51.534;8.262;2023-06-19T10:38:34;4.38;;;2.00;;
17658;SDS011;8948;51.534;8.262;2023-06-19T10:43:34;5.15;;;1.95;;
17658;SDS011;8948;51.534;8.262;2023-06-19T10:48:42;3.63;;;2.08;;
17658;SDS011;8948;51.534;8.262;2023-06-19T10:53:43;3.20;;;1.92;;
17658;SDS011;8948;51.534;8.262;2023-06-19T10:58:44;3.53;;;2.00;;
17658;SDS011;8948;51.534;8.262;2023-06-19T11:03:45;4.45;;;1.90;;
17658;SDS011;8948;51.534;8.262;2023-06-19T11:08:50;4.88;;;1.98;;
17658;SDS011;8948;51.534;8.262;2023-06-19T11:13:52;5.25;;;2.00;;
17658;SDS011;8948;51.534;8.262;2023-06-19T11:18:56;3.13;;;2.08;;
17658;SDS011;8948;51.534;8.262;2023-06-19T11:23:57;7.22;;;1.95;;
17658;SDS011;8948;51.534;8.262;2023-06-19T11:28:58;4.47;;;2.28;;
17658;SDS011;8948;51.534;8.262;2023-06-19T11:33:59;4.15;;;2.05;;
17658;SDS011;8948;51.534;8.262;2023-06-19T11:39:02;3.22;;;1.70;;
17658;SDS011;8948;51.534;8.262;2023-06-19T11:44:09;2.97;;;1.92;;
17658;SDS011;8948;51.534;8.262;2023-06-19T11:49:13;3.05;;;1.70;;
17658;SDS011;8948;51.534;8.262;2023-06-19T11:54:18;3.25;;;2.30;;
17658;SDS011;8948;51.534;8.262;2023-06-19T11:59:19;3.92;;;2.15;;
17658;SDS011;8948;51.534;8.262;2023-06-19T12:04:20;2.30;;;1.90;;
17658;SDS011;8948;51.534;8.262;2023-06-19T12:09:21;8.57;;;2.30;;
17658;SDS011;8948;51.534;8.262;2023-06-19T12:14:22;8.82;;;2.33;;
17658;SDS011;8948;51.534;8.262;2023-06-19T12:19:25;6.45;;;2.70;;
17658;SDS011;8948;51.534;8.262;2023-06-19T12:24:26;4.47;;;2.70;;
17658;SDS011;8948;51.534;8.262;2023-06-19T12:29:26;4.90;;;3.08;;
17658;SDS011;8948;51.534;8.262;2023-06-19T12:34:27;9.85;;;2.50;;
17658;SDS011;8948;51.534;8.262;2023-06-19T12:39:28;4.47;;;2.63;;
17658;SDS011;8948;51.534;8.262;2023-06-19T12:44:28;8.90;;;2.80;;
17658;SDS011;8948;51.534;8.262;2023-06-19T12:49:29;6.22;;;2.63;;
17658;SDS011;8948;51.534;8.262;2023-06-19T12:54:29;3.20;;;2.67;;
17658;SDS011;8948;51.534;8.262;2023-06-19T12:59:30;7.78;;;2.38;;
17658;SDS011;8948;51.534;8.262;2023-06-19T13:04:32;3.85;;;2.85;;
17658;SDS011;8948;51.534;8.262;2023-06-19T13:09:33;3.42;;;2.22;;
17658;SDS011;8948;51.534;8.262;2023-06-19T13:14:35;5.30;;;2.58;;
17658;SDS011;8948;51.534;8.262;2023-06-19T13:19:37;4.10;;;2.53;;
17658;SDS011;8948;51.534;8.262;2023-06-19T13:24:38;5.28;;;2.67;;
17658;SDS011;8948;51.534;8.262;2023-06-19T13:29:38;3.65;;;2.45;;
17658;SDS011;8948;51.534;8.262;2023-06-19T13:34:40;2.63;;;2.30;;
17658;SDS011;8948;51.534;8.262;2023-06-19T13:39:41;4.00;;;2.47;;
17658;SDS011;8948;51.534;8.262;2023-06-19T13:44:41;6.78;;;2.72;;
17658;SDS011;8948;51.534;8.262;2023-06-19T13:49:42;6.03;;;2.88;;
17658;SDS011;8948;51.534;8.262;2023-06-19T13:54:42;4.10;;;2.45;;
17658;SDS011;8948;51.534;8.262;2023-06-19T13:59:43;8.40;;;2.60;;
17658;SDS011;8948;51.534;8.262;2023-06-19T14:04:44;6.00;;;2.80;;
17658;SDS011;8948;51.534;8.262;2023-06-19T14:09:44;7.10;;;3.03;;
17658;SDS011;8948;51.534;8.262;2023-06-19T14:14:45;6.35;;;2.88;;
17658;SDS011;8948;51.534;8.262;2023-06-19T14:19:45;5.35;;;2.80;;
17658;SDS011;8948;51.534;8.262;2023-06-19T14:24:46;4.35;;;3.20;;
17658;SDS011;8948;51.534;8.262;2023-06-19T14:29:46;14.15;;;3.45;;
17658;SDS011;8948;51.534;8.262;2023-06-19T14:34:47;3.78;;;2.95;;
17658;SDS011;8948;51.534;8.262;2023-06-19T14:39:47;7.85;;;3.00;;
17658;SDS011;8948;51.534;8.262;2023-06-19T14:44:48;6.25;;;3.28;;
17658;SDS011;8948;51.534;8.262;2023-06-19T14:49:48;5.63;;;3.00;;
17658;SDS011;8948;51.534;8.262;2023-06-19T14:54:49;5.50;;;2.83;;
17658;SDS011;8948;51.534;8.262;2023-06-19T14:59:50;4.15;;;3.38;;
17658;SDS011;8948;51.534;8.262;2023-06-19T15:04:50;8.43;;;3.40;;
17658;SDS011;8948;51.534;8.262;2023-06-19T15:09:51;6.00;;;3.10;;
17658;SDS011;8948;51.534;8.262;2023-06-19T15:14:51;6.90;;;3.38;;
17658;SDS011;8948;51.534;8.262;2023-06-19T15:19:52;5.13;;;3.20;;
17658;SDS011;8948;51.534;8.262;2023-06-19T15:24:53;8.90;;;3.67;;
17658;SDS011;8948;51.534;8.262;2023-06-19T15:29:53;7.35;;;3.03;;
17658;SDS011;8948;51.534;8.262;2023-06-19T15:34:54;9.57;;;3.63;;
17658;SDS011;8948;51.534;8.262;2023-06-19T15:39:54;4.35;;;3.15;;
17658;SDS011;8948;51.534;8.262;2023-06-19T15:44:55;7.00;;;3.20;;
17658;SDS011;8948;51.534;8.262;2023-06-19T15:49:56;8.60;;;3.25;;
17658;SDS011;8948;51.534;8.262;2023-06-19T15:54:56;12.85;;;3.70;;
17658;SDS011;8948;51.534;8.262;2023-06-19T15:59:57;7.15;;;3.60;;
17658;SDS011;8948;51.534;8.262;2023-06-19T16:04:57;12.40;;;3.45;;
17658;SDS011;8948;51.534;8.262;2023-06-19T16:09:58;7.80;;;3.45;;
17658;SDS011;8948;51.534;8.262;2023-06-19T16:14:58;7.28;;;3.63;;
17658;SDS011;8948;51.534;8.262;2023-06-19T16:19:59;6.82;;;3.22;;
17658;SDS011;8948;51.534;8.262;2023-06-19T16:25:00;4.25;;;3.38;;
17658;SDS011;8948;51.534;8.262;2023-06-19T16:30:00;5.70;;;3.17;;
17658;SDS011;8948;51.534;8.262;2023-06-19T16:35:03;6.22;;;3.50;;
17658;SDS011;8948;51.534;8.262;2023-06-19T16:40:04;4.70;;;3.40;;
17658;SDS011;8948;51.534;8.262;2023-06-19T16:45:06;4.93;;;3.35;;
17658;SDS011;8948;51.534;8.262;2023-06-19T16:50:07;5.70;;;3.20;;
17658;SDS011;8948;51.534;8.262;2023-06-19T16:55:08;12.65;;;3.53;;
17658;SDS011;8948;51.534;8.262;2023-06-19T17:00:09;4.45;;;3.53;;
17658;SDS011;8948;51.534;8.262;2023-06-19T17:05:10;5.13;;;3.47;;
17658;SDS011;8948;51.534;8.262;2023-06-19T17:10:11;5.65;;;3.30;;
17658;SDS011;8948;51.534;8.262;2023-06-19T17:15:12;5.05;;;3.30;;
17658;SDS011;8948;51.534;8.262;2023-06-19T17:20:13;4.43;;;3.22;;
17658;SDS011;8948;51.534;8.262;2023-06-19T17:25:13;5.65;;;3.60;;
17658;SDS011;8948;51.534;8.262;2023-06-19T17:30:14;4.05;;;3.25;;
17658;SDS011;8948;51.534;8.262;2023-06-19T17:35:18;5.50;;;3.30;;
17658;SDS011;8948;51.534;8.262;2023-06-19T17:40:19;5.50;;;3.60;;
17658;SDS011;8948;51.534;8.262;2023-06-19T17:45:19;5.38;;;3.65;;
17658;SDS011;8948;51.534;8.262;2023-06-19T17:50:20;11.02;;;3.65;;
17658;SDS011;8948;51.534;8.262;2023-06-19T17:55:20;18.10;;;3.35;;
17658;SDS011;8948;51.534;8.262;2023-06-19T18:00:21;9.85;;;3.55;;
17658;SDS011;8948;51.534;8.262;2023-06-19T18:05:21;7.20;;;3.72;;
17658;SDS011;8948;51.534;8.262;2023-06-19T18:10:22;6.13;;;3.70;;
17658;SDS011;8948;51.534;8.262;2023-06-19T18:15:22;6.72;;;3.90;;
17658;SDS011;8948;51.534;8.262;2023-06-19T18:20:23;4.47;;;3.40;;
17658;SDS011;8948;51.534;8.262;2023-06-19T18:25:24;7.90;;;3.63;;
17658;SDS011;8948;51.534;8.262;2023-06-19T18:30:24;6.60;;;3.47;;
17658;SDS011;8948;51.534;8.262;2023-06-19T18:35:25;9.57;;;3.55;;
17658;SDS011;8948;51.534;8.262;2023-06-19T18:40:25;5.30;;;3.50;;
17658;SDS011;8948;51.534;8.262;2023-06-19T18:45:26;13.02;;;3.83;;
17658;SDS011;8948;51.534;8.262;2023-06-19T18:50:26;5.10;;;3.92;;
17658;SDS011;8948;51.534;8.262;2023-06-19T18:55:27;15.32;;;4.25;;
17658;SDS011;8948;51.534;8.262;2023-06-19T19:00:27;6.25;;;3.40;;
17658;SDS011;8948;51.534;8.262;2023-06-19T19:05:28;8.32;;;3.88;;
17658;SDS011;8948;51.534;8.262;2023-06-19T19:10:28;7.10;;;3.67;;
17658;SDS011;8948;51.534;8.262;2023-06-19T19:15:29;6.60;;;2.90;;
17658;SDS011;8948;51.534;8.262;2023-06-19T19:20:30;8.30;;;4.00;;
17658;SDS011;8948;51.534;8.262;2023-06-19T19:25:30;6.90;;;3.30;;
17658;SDS011;8948;51.534;8.262;2023-06-19T19:30:32;7.40;;;3.90;;
17658;SDS011;8948;51.534;8.262;2023-06-19T19:35:33;6.47;;;3.75;;
17658;SDS011;8948;51.534;8.262;2023-06-19T19:40:33;4.68;;;3.55;;
17658;SDS011;8948;51.534;8.262;2023-06-19T19:45:34;6.70;;;3.70;;
17658;SDS011;8948;51.534;8.262;2023-06-19T19:50:34;11.27;;;4.35;;
17658;SDS011;8948;51.534;8.262;2023-06-19T19:55:35;6.45;;;3.95;;
17658;SDS011;8948;51.534;8.262;2023-06-19T20:00:35;8.15;;;3.42;;
17658;SDS011;8948;51.534;8.262;2023-06-19T20:05:36;8.20;;;3.90;;
17658;SDS011;8948;51.534;8.262;2023-06-19T20:10:38;7.10;;;3.40;;
17658;SDS011;8948;51.534;8.262;2023-06-19T20:15:38;6.05;;;3.95;;
17658;SDS011;8948;51.534;8.262;2023-06-19T20:20:39;12.05;;;4.18;;
17658;SDS011;8948;51.534;8.262;2023-06-19T20:25:39;8.63;;;4.35;;
17658;SDS011;8948;51.534;8.262;2023-06-19T20:30:40;9.70;;;3.88;;
17658;SDS011;8948;51.534;8.262;2023-06-19T20:35:40;7.20;;;4.28;;
17658;SDS011;8948;51.534;8.262;2023-06-19T20:40:41;9.88;;;4.10;;
17658;SDS011;8948;51.534;8.262;2023-06-19T20:45:42;10.07;;;4.68;;
17658;SDS011;8948;51.534;8.262;2023-06-19T20:50:42;6.20;;;4.03;;
17658;SDS011;8948;51.534;8.262;2023-06-19T20:55:43;10.07;;;4.30;;
17658;SDS011;8948;51.534;8.262;2023-06-19T21:00:44;5.97;;;4.05;;
17658;SDS011;8948;51.534;8.262;2023-06-19T21:05:45;5.25;;;4.20;;
17658;SDS011;8948;51.534;8.262;2023-06-19T21:10:46;9.30;;;4.78;;
17658;SDS011;8948;51.534;8.262;2023-06-19T21:15:46;6.25;;;4.82;;
17658;SDS011;8948;51.534;8.262;2023-06-19T21:20:47;7.18;;;4.25;;
17658;SDS011;8948;51.534;8.262;2023-06-19T21:25:48;7.03;;;4.70;;
17658;SDS011;8948;51.534;8.262;2023-06-19T21:30:49;7.32;;;5.15;;
17658;SDS011;8948;51.534;8.262;2023-06-19T21:35:49;6.40;;;4.25;;
17658;SDS011;8948;51.534;8.262;2023-06-19T21:40:50;6.18;;;4.40;;
17658;SDS011;8948;51.534;8.262;2023-06-19T21:45:51;7.88;;;4.78;;
17658;SDS011;8948;51.534;8.262;2023-06-19T21:50:52;7.32;;;4.45;;
17658;SDS011;8948;51.534;8.262;2023-06-19T21:55:52;5.80;;;4.30;;
17658;SDS011;8948;51.534;8.262;2023-06-19T22:00:53;11.43;;;5.05;;
17658;SDS011;8948;51.534;8.262;2023-06-19T22:05:54;6.78;;;4.95;;
17658;SDS011;8948;51.534;8.262;2023-06-19T22:10:54;9.93;;;4.90;;
17658;SDS011;8948;51.534;8.262;2023-06-19T22:15:55;8.20;;;4.70;;
17658;SDS011;8948;51.534;8.262;2023-06-19T22:20:56;9.63;;;4.82;;
17658;SDS011;8948;51.534;8.262;2023-06-19T22:25:56;6.75;;;4.93;;
17658;SDS011;8948;51.534;8.262;2023-06-19T22:30:57;8.73;;;5.22;;
17658;SDS011;8948;51.534;8.262;2023-06-19T22:35:57;9.88;;;5.57;;
17658;SDS011;8948;51.534;8.262;2023-06-19T22:40:58;8.88;;;5.43;;
17658;SDS011;8948;51.534;8.262;2023-06-19T22:45:59;12.25;;;5.60;;
17658;SDS011;8948;51.534;8.262;2023-06-19T22:50:59;8.90;;;5.20;;
17658;SDS011;8948;51.534;8.262;2023-06-19T22:56:01;12.25;;;5.50;;
17658;SDS011;8948;51.534;8.262;2023-06-19T23:01:01;9.85;;;5.20;;
17658;SDS011;8948;51.534;8.262;2023-06-19T23:06:02;7.97;;;5.30;;
17658;SDS011;8948;51.534;8.262;2023-06-19T23:11:02;9.23;;;4.85;;
17658;SDS011;8948;51.534;8.262;2023-06-19T23:16:07;8.77;;;5.47;;
17658;SDS011;8948;51.534;8.262;2023-06-19T23:21:10;8.15;;;5.90;;
17658;SDS011;8948;51.534;8.262;2023-06-19T23:26:11;8.85;;;6.45;;
17658;SDS011;8948;51.534;8.262;2023-06-19T23:31:13;7.47;;;5.28;;
17658;SDS011;8948;51.534;8.262;2023-06-19T23:36:14;7.28;;;5.40;;
17658;SDS011;8948;51.534;8.262;2023-06-19T23:41:14;9.73;;;4.95;;
17658;SDS011;8948;51.534;8.262;2023-06-19T23:46:15;6.68;;;4.68;;
17658;SDS011;8948;51.534;8.262;2023-06-19T23:51:17;9.63;;;4.93;;
17658;SDS011;8948;51.534;8.262;2023-06-19T23:56:18;7.95;;;4.53;;
